Time;durP1;ratioP1;P1;durP2;ratioP2;P2;SDS_P1;SDS_P2;PMS_P1;PMS_P2;Temp;Humidity;BMP_temperature;BMP_pressure;BME280_temperature;BME280_humidity;BME280_pressure;Samples;Min_cycle;Max_cycle;Signal;HPM_P1;HPM_P2
2023/02/23 00:01:56;;;;;;;30.73;22.75;;;13.00;80.30;;;;;;6307346;22;20019;-72
2023/02/23 00:04:23;;;;;;;30.48;23.77;;;13.00;80.40;;;;;;6308110;22;20358;-70
2023/02/23 00:06:50;;;;;;;29.13;23.33;;;12.90;80.50;;;;;;6309158;22;20015;-71
2023/02/23 00:09:23;;;;;;;30.15;24.08;;;12.90;80.80;;;;;;6281105;22;20026;-71
2023/02/23 00:11:56;;;;;;;29.60;24.42;;;12.90;81.20;;;;;;6308092;22;20008;-70
2023/02/23 00:14:27;;;;;;;32.13;25.05;;;12.90;81.30;;;;;;6307990;22;20006;-72
2023/02/23 00:16:54;;;;;;;35.45;26.30;;;12.80;80.70;;;;;;6280910;22;20014;-71
2023/02/23 00:19:23;;;;;;;30.08;24.02;;;12.90;80.80;;;;;;6307198;22;20378;-71
2023/02/23 00:21:49;;;;;;;32.65;24.65;;;12.80;80.50;;;;;;6307762;22;20010;-71
2023/02/23 00:24:18;;;;;;;31.88;24.73;;;12.90;80.60;;;;;;6307741;22;20022;-72
2023/02/23 00:26:46;;;;;;;31.65;24.85;;;12.90;80.70;;;;;;6280415;22;20007;-70
2023/02/23 00:29:16;;;;;;;33.78;26.35;;;12.80;81.00;;;;;;6308199;22;20003;-72
2023/02/23 00:31:43;;;;;;;30.50;25.52;;;12.80;80.40;;;;;;6280467;22;20004;-72
2023/02/23 00:34:10;;;;;;;33.45;26.75;;;12.80;80.40;;;;;;6308168;22;20026;-71
2023/02/23 00:36:36;;;;;;;32.15;25.95;;;12.80;80.50;;;;;;6307507;22;20062;-71
2023/02/23 00:39:16;;;;;;;32.83;26.75;;;12.80;80.70;;;;;;6307789;22;20003;-72
2023/02/23 00:41:41;;;;;;;36.30;27.73;;;12.70;80.40;;;;;;6307874;22;20004;-72
2023/02/23 00:44:07;;;;;;;33.70;27.63;;;12.70;80.60;;;;;;6307534;22;20057;-71
2023/02/23 00:46:33;;;;;;;40.63;27.48;;;12.70;80.60;;;;;;6277746;22;20038;-70
2023/02/23 00:48:59;;;;;;;35.20;28.10;;;12.70;80.80;;;;;;6307377;22;20340;-72
2023/02/23 00:51:29;;;;;;;39.40;28.23;;;12.60;80.80;;;;;;6307377;22;20008;-71
2023/02/23 00:53:56;;;;;;;30.00;26.00;;;12.70;81.20;;;;;;6307647;22;20441;-70
2023/02/23 00:56:22;;;;;;;33.00;25.52;;;12.70;81.00;;;;;;6307450;22;20075;-71
2023/02/23 00:58:48;;;;;;;33.28;25.92;;;12.70;81.00;;;;;;6307258;22;20019;-69
2023/02/23 01:01:15;;;;;;;37.70;26.42;;;12.70;80.40;;;;;;6307423;22;20027;-71
2023/02/23 01:03:42;;;;;;;33.35;26.27;;;12.70;80.30;;;;;;6307630;22;20025;-72
2023/02/23 01:06:11;;;;;;;30.48;25.25;;;12.70;80.50;;;;;;6307619;22;20007;-70
2023/02/23 01:08:39;;;;;;;33.83;26.52;;;12.70;80.60;;;;;;6307220;22;20041;-71
2023/02/23 01:11:14;;;;;;;32.45;25.30;;;12.60;80.70;;;;;;6307305;22;20010;-71
2023/02/23 01:13:42;;;;;;;29.00;24.30;;;12.70;81.20;;;;;;6307428;22;20011;-71
2023/02/23 01:16:11;;;;;;;32.85;25.42;;;12.60;81.00;;;;;;6307222;22;20094;-70
2023/02/23 01:18:39;;;;;;;28.77;24.40;;;12.60;80.80;;;;;;6307085;22;20372;-71
2023/02/23 01:21:13;;;;;;;28.73;24.60;;;12.60;81.00;;;;;;6307146;22;19995;-71
2023/02/23 01:23:39;;;;;;;31.90;24.80;;;12.60;80.70;;;;;;6307180;22;20009;-73
2023/02/23 01:26:05;;;;;;;29.77;24.98;;;12.60;80.80;;;;;;6307155;22;20070;-72
2023/02/23 01:28:30;;;;;;;31.45;25.05;;;12.60;81.10;;;;;;6307747;22;19999;-71
2023/02/23 01:30:56;;;;;;;34.83;24.55;;;12.50;81.00;;;;;;6307460;22;20003;-72
2023/02/23 01:33:22;;;;;;;27.75;23.85;;;12.50;81.30;;;;;;6307375;22;20065;-71
2023/02/23 01:35:58;;;;;;;35.75;25.17;;;12.50;81.40;;;;;;6307188;22;19995;-70
2023/02/23 01:38:24;;;;;;;27.38;23.42;;;12.50;81.60;;;;;;6307025;22;20302;-72
2023/02/23 01:40:49;;;;;;;27.52;22.55;;;12.50;81.20;;;;;;6307234;22;20002;-72
2023/02/23 01:43:25;;;;;;;27.83;22.95;;;12.40;81.30;;;;;;6307605;22;20003;-71
2023/02/23 01:45:55;;;;;;;27.23;21.50;;;12.50;81.70;;;;;;6307075;22;20060;-71
2023/02/23 01:48:28;;;;;;;30.00;23.75;;;12.50;81.50;;;;;;6306801;22;20398;-72
2023/02/23 01:50:59;;;;;;;27.20;22.17;;;12.40;81.40;;;;;;6307108;22;20044;-72
2023/02/23 01:53:33;;;;;;;28.52;23.33;;;12.40;81.60;;;;;;6307013;22;20335;-71
2023/02/23 01:56:10;;;;;;;32.22;24.35;;;12.40;81.70;;;;;;6279520;22;20010;-71
2023/02/23 01:58:38;;;;;;;33.42;24.77;;;12.40;81.90;;;;;;6307319;22;20003;-72
2023/02/23 02:01:04;;;;;;;32.78;26.10;;;12.30;81.70;;;;;;6306710;22;20011;-71
2023/02/23 02:03:56;;;;;;;31.92;24.20;;;12.30;81.90;;;;;;6307112;22;20494;-71
2023/02/23 02:06:27;;;;;;;32.38;24.92;;;12.20;82.60;;;;;;6306902;22;20074;-71
2023/02/23 02:08:56;;;;;;;29.73;24.55;;;12.20;82.00;;;;;;6279151;22;20004;-71
2023/02/23 02:11:29;;;;;;;32.42;24.52;;;12.20;82.00;;;;;;6306631;22;20497;-71
2023/02/23 02:14:19;;;;;;;29.13;24.20;;;12.20;82.20;;;;;;6279564;22;20011;-72
2023/02/23 02:16:44;;;;;;;33.38;25.77;;;12.10;81.90;;;;;;6306983;22;20011;-71
2023/02/23 02:20:00;;;;;;;36.13;25.23;;;12.00;82.20;;;;;;6306628;22;20084;-70
2023/02/23 02:22:40;;;;;;;29.65;23.75;;;11.90;82.20;;;;;;6241531;22;20004;-70
2023/02/23 02:25:28;;;;;;;32.95;23.00;;;11.90;82.40;;;;;;6307023;22;20070;-70
2023/02/23 02:28:12;;;;;;;33.55;23.20;;;11.80;82.40;;;;;;6307014;22;20408;-71
2023/02/23 02:30:40;;;;;;;30.95;22.95;;;11.80;83.10;;;;;;6306873;22;19995;-73
2023/02/23 02:33:14;;;;;;;32.40;23.17;;;11.80;82.60;;;;;;6306525;22;20039;-72
2023/02/23 02:36:01;;;;;;;32.17;24.73;;;11.80;82.60;;;;;;6306945;22;20014;-72
2023/02/23 02:38:30;;;;;;;29.42;23.50;;;11.70;82.60;;;;;;6306743;22;20452;-71
2023/02/23 02:41:16;;;;;;;28.33;23.42;;;11.70;82.60;;;;;;6306549;22;20745;-71
2023/02/23 02:44:16;;;;;;;30.48;22.85;;;11.70;82.90;;;;;;6306433;22;19995;-71
2023/02/23 02:46:57;;;;;;;29.65;24.20;;;11.70;82.60;;;;;;6306516;22;20000;-71
2023/02/23 02:49:48;;;;;;;29.75;23.77;;;11.60;83.00;;;;;;6306880;22;19999;-71
2023/02/23 02:52:54;;;;;;;30.90;24.48;;;11.60;82.50;;;;;;6306731;22;20011;-72
2023/02/23 02:55:35;;;;;;;34.38;24.70;;;11.50;82.70;;;;;;6232352;22;20004;-71
2023/02/23 02:58:06;;;;;;;27.65;24.65;;;11.40;83.50;;;;;;6306888;22;20015;-71
2023/02/23 04:18:35;;;;;;;33.40;25.17;;;11.40;84.80;;;;;;6308594;22;20042;-71
2023/02/23 04:21:02;;;;;;;32.33;24.33;;;11.40;84.70;;;;;;6308307;22;19999;-71
2023/02/23 04:23:28;;;;;;;31.60;25.27;;;11.40;84.90;;;;;;6308205;22;19995;-71
2023/02/23 04:25:55;;;;;;;29.95;24.38;;;11.40;85.00;;;;;;6280595;22;20444;-71
2023/02/23 04:28:22;;;;;;;29.42;23.42;;;11.40;84.70;;;;;;6308404;22;20078;-71
2023/02/23 04:30:48;;;;;;;30.67;24.77;;;11.30;85.10;;;;;;6280485;22;20007;-71
2023/02/23 04:33:14;;;;;;;33.42;26.38;;;11.30;85.10;;;;;;6307779;22;20021;-71
2023/02/23 04:35:40;;;;;;;30.25;25.30;;;11.20;85.30;;;;;;6307933;22;20074;-71
2023/02/23 04:38:07;;;;;;;33.75;25.30;;;11.20;85.50;;;;;;6307896;22;20000;-71
2023/02/23 04:40:32;;;;;;;33.90;25.48;;;11.10;85.10;;;;;;6307914;22;19999;-71
2023/02/23 04:42:58;;;;;;;36.58;25.98;;;11.10;85.40;;;;;;6307846;22;20328;-71
2023/02/23 04:45:24;;;;;;;32.20;24.10;;;11.10;85.40;;;;;;6307463;22;19999;-71
2023/02/23 04:47:50;;;;;;;31.50;25.23;;;11.10;85.50;;;;;;6308006;22;20010;-71
2023/02/23 04:50:16;;;;;;;41.03;25.90;;;11.20;85.50;;;;;;6307725;22;19995;-72
2023/02/23 04:52:42;;;;;;;31.42;24.30;;;11.20;85.20;;;;;;6307515;22;20003;-72
2023/02/23 04:55:17;;;;;;;32.40;25.88;;;11.20;85.40;;;;;;6307551;22;19999;-71
2023/02/23 04:57:42;;;;;;;32.90;25.15;;;11.20;84.60;;;;;;6307606;22;20029;-71
2023/02/23 05:00:09;;;;;;;34.03;25.95;;;11.20;85.40;;;;;;6307532;22;20015;-71
2023/02/23 05:02:34;;;;;;;27.80;24.25;;;11.20;85.10;;;;;;6307793;22;20006;-71
2023/02/23 05:05:00;;;;;;;32.17;25.98;;;11.10;85.40;;;;;;6307591;22;19996;-71
2023/02/23 05:07:26;;;;;;;32.22;25.45;;;11.00;85.40;;;;;;6307484;22;20425;-71
2023/02/23 05:09:51;;;;;;;30.73;24.67;;;11.00;85.70;;;;;;6307808;22;20003;-69
2023/02/23 05:12:17;;;;;;;30.98;24.30;;;11.10;85.80;;;;;;6307457;22;20007;-71
2023/02/23 05:14:43;;;;;;;31.05;24.98;;;11.00;85.70;;;;;;6307262;22;20381;-71
2023/02/23 05:17:09;;;;;;;32.35;24.55;;;11.00;85.60;;;;;;6307630;22;20057;-71
2023/02/23 05:19:36;;;;;;;30.77;24.38;;;11.00;85.80;;;;;;6307542;22;20333;-71
2023/02/23 05:22:01;;;;;;;30.98;24.40;;;11.00;85.80;;;;;;6280161;22;20011;-71
2023/02/23 05:24:27;;;;;;;29.27;23.70;;;11.00;85.90;;;;;;6280105;22;20014;-71
2023/02/23 05:26:53;;;;;;;35.22;24.67;;;11.00;86.10;;;;;;6307497;22;19999;-71
2023/02/23 05:29:18;;;;;;;33.67;24.80;;;10.90;85.90;;;;;;6307108;22;20071;-70
2023/02/23 05:31:45;;;;;;;30.05;24.08;;;10.90;86.40;;;;;;6306943;22;20408;-71
2023/02/23 05:34:11;;;;;;;34.65;25.38;;;10.80;86.20;;;;;;6307670;22;20379;-71
2023/02/23 05:36:37;;;;;;;30.75;23.95;;;10.90;86.30;;;;;;6307125;22;20019;-71
2023/02/23 05:39:03;;;;;;;30.75;24.00;;;10.90;86.30;;;;;;6307152;22;19999;-70
2023/02/23 05:41:29;;;;;;;34.80;24.90;;;10.90;86.40;;;;;;6279464;22;20512;-71
2023/02/23 05:43:54;;;;;;;32.25;23.95;;;10.90;86.40;;;;;;6307060;22;20038;-70
2023/02/23 05:46:23;;;;;;;32.92;25.10;;;10.90;86.20;;;;;;6307063;22;20006;-71
2023/02/23 05:48:50;;;;;;;32.50;24.02;;;10.90;86.20;;;;;;6307906;22;20078;-70
2023/02/23 05:51:17;;;;;;;31.63;23.58;;;10.90;86.20;;;;;;6306976;22;19996;-70
2023/02/23 05:53:43;;;;;;;29.67;24.15;;;10.90;86.20;;;;;;6307027;22;20132;-71
2023/02/23 05:56:13;;;;;;;35.30;24.77;;;10.90;86.00;;;;;;6307110;22;20022;-72
2023/02/23 05:58:38;;;;;;;31.10;24.45;;;10.90;86.50;;;;;;6307213;22;20010;-71
2023/02/23 06:01:04;;;;;;;38.45;25.75;;;10.90;86.00;;;;;;6306670;22;20372;-72
2023/02/23 06:03:30;;;;;;;32.75;24.77;;;10.90;86.00;;;;;;6306778;22;20001;-72
2023/02/23 06:05:57;;;;;;;32.13;24.75;;;10.90;86.10;;;;;;6306877;22;19999;-73
2023/02/23 06:08:25;;;;;;;35.45;27.08;;;10.80;86.40;;;;;;6307091;22;20387;-71
2023/02/23 06:10:51;;;;;;;37.75;26.30;;;10.80;86.40;;;;;;6307292;22;20011;-71
2023/02/23 06:13:17;;;;;;;32.65;25.27;;;10.80;86.40;;;;;;6279528;22;20015;-72
2023/02/23 06:15:43;;;;;;;34.88;25.23;;;10.80;86.10;;;;;;6307046;22;20000;-71
2023/02/23 06:18:09;;;;;;;32.00;23.77;;;10.80;86.30;;;;;;6307162;22;19999;-71
2023/02/23 06:20:36;;;;;;;29.92;23.48;;;10.80;86.30;;;;;;6306883;22;20006;-71
2023/02/23 06:23:02;;;;;;;31.15;23.58;;;10.80;86.30;;;;;;6307179;22;20447;-72
2023/02/23 06:25:28;;;;;;;32.28;24.23;;;10.80;86.80;;;;;;6306832;22;20421;-73
2023/02/23 06:27:54;;;;;;;30.20;23.67;;;10.90;86.60;;;;;;6306570;22;19999;-72
2023/02/23 06:30:20;;;;;;;33.67;24.00;;;10.90;86.50;;;;;;6279310;22;20010;-71
2023/02/23 06:32:45;;;;;;;30.80;22.90;;;10.90;86.40;;;;;;6306754;22;20007;-72
2023/02/23 06:35:11;;;;;;;28.50;22.58;;;10.90;86.30;;;;;;6279541;22;20053;-71
2023/02/23 06:37:37;;;;;;;34.00;23.60;;;10.90;86.30;;;;;;6306721;22;20453;-72
2023/02/23 06:40:04;;;;;;;34.50;22.67;;;11.00;86.50;;;;;;6306749;22;19995;-72
2023/02/23 06:42:30;;;;;;;35.45;24.30;;;11.00;86.20;;;;;;6308169;22;20007;-72
2023/02/23 06:44:55;;;;;;;31.23;23.15;;;11.00;85.80;;;;;;6327528;22;19980;-71
2023/02/23 06:47:21;;;;;;;32.70;23.80;;;11.00;86.00;;;;;;6333451;22;20051;-72
2023/02/23 06:49:47;;;;;;;33.53;25.02;;;11.00;86.00;;;;;;6312243;22;20064;-72
2023/02/23 06:52:14;;;;;;;36.35;24.83;;;11.00;85.80;;;;;;6308444;22;20033;-72
2023/02/23 06:54:40;;;;;;;33.88;24.73;;;11.00;86.00;;;;;;6308122;22;20097;-72
2023/02/23 06:57:07;;;;;;;31.65;24.48;;;11.00;86.10;;;;;;6308495;22;20003;-72
2023/02/23 06:59:35;;;;;;;30.83;24.27;;;11.00;86.20;;;;;;6308623;22;20023;-73
2023/02/23 07:02:04;;;;;;;34.15;24.63;;;11.10;85.80;;;;;;6281014;22;20011;-74
2023/02/23 07:04:30;;;;;;;31.67;24.17;;;11.10;85.70;;;;;;6309035;22;20016;-73
2023/02/23 07:06:56;;;;;;;30.38;23.10;;;11.20;85.80;;;;;;6308418;22;20359;-72
2023/02/23 07:09:22;;;;;;;31.60;22.65;;;11.20;85.60;;;;;;6308243;22;19995;-73
2023/02/23 07:11:47;;;;;;;30.00;23.65;;;11.40;85.70;;;;;;6280778;22;20007;-72
2023/02/23 07:14:13;;;;;;;32.45;24.02;;;11.50;85.20;;;;;;6308477;22;20011;-72
2023/02/23 07:16:39;;;;;;;30.63;23.77;;;11.60;85.10;;;;;;6307729;22;20368;-71
2023/02/23 07:19:06;;;;;;;32.60;23.38;;;11.70;84.90;;;;;;6307736;22;20004;-71
2023/02/23 07:21:32;;;;;;;34.45;23.65;;;11.90;84.70;;;;;;6307679;22;20049;-71
2023/02/23 07:23:59;;;;;;;30.13;23.17;;;12.00;84.30;;;;;;6307588;22;19999;-70
2023/02/23 07:26:26;;;;;;;29.90;22.85;;;12.10;84.20;;;;;;6307927;22;20325;-72
2023/02/23 07:28:52;;;;;;;28.55;21.88;;;12.30;83.50;;;;;;6307682;22;20003;-71
2023/02/23 07:31:18;;;;;;;31.85;22.00;;;12.40;83.00;;;;;;6307467;22;20340;-71
2023/02/23 07:33:44;;;;;;;27.98;22.30;;;12.50;83.00;;;;;;6279836;22;20126;-71
2023/02/23 07:36:10;;;;;;;26.10;21.35;;;12.60;82.40;;;;;;6306832;22;20000;-71
2023/02/23 07:38:36;;;;;;;38.00;23.17;;;12.60;81.90;;;;;;6307303;22;20006;-72
2023/02/23 07:41:02;;;;;;;28.60;21.63;;;12.80;82.00;;;;;;6307535;22;19999;-72
2023/02/23 07:43:28;;;;;;;34.25;22.83;;;12.80;81.90;;;;;;6307700;22;20009;-72
2023/02/23 07:45:54;;;;;;;39.13;24.23;;;12.80;81.50;;;;;;6307610;22;20345;-72
2023/02/23 07:48:20;;;;;;;32.58;23.92;;;12.80;81.40;;;;;;6280509;22;20086;-71
2023/02/23 07:50:47;;;;;;;34.90;23.38;;;12.90;81.20;;;;;;6307695;22;20027;-71
2023/02/23 07:53:14;;;;;;;35.72;23.17;;;13.00;81.10;;;;;;6279789;22;20349;-72
2023/02/23 07:55:39;;;;;;;32.70;22.80;;;13.10;80.60;;;;;;6307281;22;20074;-72
2023/02/23 07:58:06;;;;;;;32.30;23.75;;;13.20;80.10;;;;;;6307557;22;20108;-71
2023/02/23 08:00:33;;;;;;;28.85;22.73;;;13.20;79.60;;;;;;6307498;22;20015;-72
2023/02/23 08:03:00;;;;;;;35.13;22.55;;;13.30;79.70;;;;;;6307631;22;20004;-71
2023/02/23 08:05:27;;;;;;;29.35;23.67;;;13.30;79.20;;;;;;6308257;22;20011;-71
2023/02/23 08:07:54;;;;;;;35.10;21.95;;;13.40;79.10;;;;;;6308161;22;20015;-72
2023/02/23 08:10:21;;;;;;;33.08;22.95;;;13.40;78.70;;;;;;6307970;22;20018;-72
2023/02/23 08:12:46;;;;;;;32.90;23.20;;;13.40;78.80;;;;;;6307429;22;20015;-71
2023/02/23 08:15:12;;;;;;;31.25;22.45;;;13.40;78.80;;;;;;6307873;22;20455;-72
2023/02/23 08:17:40;;;;;;;28.50;22.25;;;13.50;79.10;;;;;;6307571;22;19999;-71
2023/02/23 08:20:07;;;;;;;34.88;23.17;;;13.50;78.60;;;;;;6307487;22;20440;-72
2023/02/23 08:22:33;;;;;;;28.63;22.15;;;13.60;78.60;;;;;;6307638;22;19999;-72
2023/02/23 08:24:58;;;;;;;32.60;22.90;;;13.60;78.40;;;;;;6307184;22;19999;-71
2023/02/23 08:27:24;;;;;;;30.80;23.25;;;13.70;78.30;;;;;;6308023;22;20058;-72
2023/02/23 08:29:53;;;;;;;28.77;22.50;;;13.60;78.10;;;;;;6278937;22;20061;-72
2023/02/23 08:32:20;;;;;;;28.65;22.63;;;13.60;78.20;;;;;;6307710;22;20014;-71
2023/02/23 08:34:45;;;;;;;37.92;22.25;;;13.70;78.20;;;;;;6280102;22;20093;-73
2023/02/23 08:37:11;;;;;;;34.35;23.33;;;13.70;78.00;;;;;;6307323;22;20030;-72
2023/02/23 08:39:37;;;;;;;31.67;23.42;;;13.70;78.50;;;;;;6280224;22;20048;-72
2023/02/23 08:42:04;;;;;;;34.38;22.42;;;13.80;77.80;;;;;;6307247;22;20101;-73
2023/02/23 08:44:30;;;;;;;33.25;22.02;;;13.80;77.80;;;;;;6307573;22;20086;-74
2023/02/23 08:46:57;;;;;;;31.63;22.30;;;13.90;77.70;;;;;;6306502;22;20030;-72
2023/02/23 08:49:24;;;;;;;31.42;22.45;;;13.90;77.40;;;;;;6306382;22;19999;-74
2023/02/23 08:51:50;;;;;;;30.13;21.50;;;14.00;77.40;;;;;;6306728;22;19999;-72
2023/02/23 08:54:16;;;;;;;28.85;21.30;;;14.10;77.40;;;;;;6307418;22;20392;-74
2023/02/23 08:56:43;;;;;;;32.78;21.25;;;14.10;77.40;;;;;;6307200;22;20007;-74
2023/02/23 08:59:10;;;;;;;30.23;20.55;;;14.10;76.90;;;;;;6306999;22;20052;-74
2023/02/23 09:01:36;;;;;;;33.75;22.23;;;14.20;76.90;;;;;;6306479;22;20021;-73
2023/02/23 09:04:04;;;;;;;34.42;21.33;;;14.10;76.70;;;;;;6306829;22;20470;-74
2023/02/23 09:06:30;;;;;;;30.65;21.05;;;14.20;76.80;;;;;;6306467;22;20023;-74
2023/02/23 09:08:56;;;;;;;26.17;21.35;;;14.20;76.60;;;;;;6307090;22;20045;-73
2023/02/23 09:11:22;;;;;;;26.65;20.15;;;14.30;76.60;;;;;;6306704;22;20415;-75
2023/02/23 09:13:49;;;;;;;25.35;19.27;;;14.40;76.20;;;;;;6306516;22;20014;-74
2023/02/23 09:16:15;;;;;;;25.65;18.52;;;14.40;76.00;;;;;;6279115;22;20026;-73
2023/02/23 09:18:41;;;;;;;28.80;19.30;;;14.40;75.90;;;;;;6306068;22;19999;-74
2023/02/23 09:21:17;;;;;;;29.90;19.85;;;14.50;75.90;;;;;;6306914;22;20367;-73
2023/02/23 09:23:44;;;;;;;21.50;17.45;;;14.60;75.80;;;;;;6306533;22;20026;-73
2023/02/23 09:26:10;;;;;;;22.67;15.45;;;14.70;75.50;;;;;;6306435;22;20293;-72
2023/02/23 09:28:37;;;;;;;20.67;14.10;;;14.70;75.30;;;;;;6306378;22;20413;-72
2023/02/23 09:31:11;;;;;;;19.65;14.00;;;14.80;75.20;;;;;;6308128;22;20313;-74
2023/02/23 09:33:38;;;;;;;22.30;14.48;;;14.90;74.90;;;;;;6328840;22;20011;-73
2023/02/23 09:36:10;;;;;;;21.02;16.17;;;15.00;75.00;;;;;;6329341;22;19984;-73
2023/02/23 09:38:36;;;;;;;17.25;14.18;;;15.10;74.70;;;;;;6308649;22;20015;-73
2023/02/23 09:41:02;;;;;;;23.52;14.50;;;15.20;74.60;;;;;;6308058;22;20404;-74
2023/02/23 09:43:50;;;;;;;18.60;13.23;;;15.20;74.50;;;;;;6279928;22;20011;-74
2023/02/23 09:46:29;;;;;;;20.83;15.13;;;15.30;74.50;;;;;;6307172;22;20440;-76
2023/02/23 09:48:56;;;;;;;22.15;15.95;;;15.40;74.20;;;;;;6307306;22;19999;-75
2023/02/23 09:51:23;;;;;;;21.25;14.32;;;15.40;74.10;;;;;;6306543;22;20467;-74
2023/02/23 09:54:02;;;;;;;19.55;14.23;;;15.50;73.90;;;;;;6278684;22;20090;-75
2023/02/23 09:56:46;;;;;;;18.27;13.77;;;15.50;74.00;;;;;;6306800;22;20070;-72
2023/02/23 09:59:15;;;;;;;17.45;12.65;;;15.60;74.10;;;;;;6305808;22;20456;-73
2023/02/23 10:01:47;;;;;;;18.55;12.07;;;15.70;74.00;;;;;;6305375;22;20460;-72
2023/02/23 10:04:27;;;;;;;19.33;11.95;;;15.80;73.70;;;;;;6306269;22;20478;-72
2023/02/23 10:07:01;;;;;;;26.65;12.60;;;15.80;73.60;;;;;;6305855;22;19999;-71
2023/02/23 10:09:37;;;;;;;;;;;15.80;73.40;;;;;;6279475;22;20004;-74
2023/02/23 10:12:25;;;;;;;16.13;11.23;;;15.90;73.30;;;;;;6278201;22;19942;-73
2023/02/23 10:15:21;;;;;;;14.10;10.25;;;16.00;73.20;;;;;;6305952;22;20034;-73
2023/02/23 10:18:05;;;;;;;16.05;10.82;;;16.00;73.00;;;;;;6278653;22;20000;-72
2023/02/23 10:20:36;;;;;;;;;;;16.10;73.20;;;;;;6306382;22;19999;-72
2023/02/23 10:23:06;;;;;;;16.63;11.15;;;16.10;72.60;;;;;;6305981;22;19906;-73
2023/02/23 10:25:40;;;;;;;22.38;11.57;;;16.20;72.50;;;;;;6305708;22;20031;-74
2023/02/23 10:28:11;;;;;;;;;;;16.40;72.10;;;;;;6306298;22;19999;-75
2023/02/23 10:30:39;;;;;;;18.27;11.27;;;16.50;71.40;;;;;;6305994;22;19899;-79
2023/02/23 10:33:33;;;;;;;18.25;12.63;;;16.60;71.90;;;;;;6305933;22;20011;-74
2023/02/23 10:36:16;;;;;;;14.48;11.40;;;16.60;71.80;;;;;;6306139;22;20083;-75
2023/02/23 10:38:42;;;;;;;16.60;11.57;;;16.60;71.70;;;;;;6278503;22;20057;-75
2023/02/23 10:41:10;;;;;;;13.57;9.32;;;16.60;71.50;;;;;;6305397;22;19999;-75
2023/02/23 10:43:36;;;;;;;16.83;9.30;;;16.70;71.20;;;;;;6306083;22;20004;-76
2023/02/23 10:46:03;;;;;;;12.77;7.38;;;16.80;71.10;;;;;;6305485;22;20374;-77
2023/02/23 10:48:38;;;;;;;11.32;7.25;;;16.80;70.70;;;;;;6306126;22;20023;-76
2023/02/23 10:51:12;;;;;;;14.27;7.10;;;16.90;70.70;;;;;;6279023;22;20003;-77
2023/02/23 10:53:38;;;;;;;;;;;17.00;70.60;;;;;;6306644;22;20011;-79
2023/02/23 10:56:04;;;;;;;11.90;5.32;;;17.10;70.40;;;;;;6305669;22;19899;-72
2023/02/23 10:58:38;;;;;;;17.02;5.95;;;17.10;70.30;;;;;;6305825;22;20006;-75
2023/02/23 11:01:05;;;;;;;12.23;5.90;;;17.10;69.60;;;;;;6305596;22;20023;-72
2023/02/23 11:03:49;;;;;;;11.48;6.68;;;17.10;69.50;;;;;;6305425;22;20444;-72
2023/02/23 11:06:27;;;;;;;11.15;6.82;;;17.20;70.10;;;;;;6306191;22;20070;-75
2023/02/23 11:08:54;;;;;;;13.93;6.15;;;17.30;69.50;;;;;;6307525;22;20021;-72
2023/02/23 11:11:27;;;;;;;11.23;6.40;;;17.40;69.60;;;;;;6278850;22;20003;-76
2023/02/23 11:13:54;;;;;;;10.43;6.38;;;17.50;69.20;;;;;;6306598;22;20007;-77
2023/02/23 11:16:21;;;;;;;13.10;6.40;;;17.50;68.60;;;;;;6306292;22;20040;-77
2023/02/23 11:18:58;;;;;;;14.32;6.10;;;17.60;68.50;;;;;;6306406;22;20041;-76
2023/02/23 11:21:28;;;;;;;11.93;5.55;;;17.50;69.20;;;;;;6305975;22;20482;-76
2023/02/23 11:23:57;;;;;;;14.40;6.10;;;17.50;68.60;;;;;;6305174;22;19999;-76
2023/02/23 11:26:36;;;;;;;8.18;6.00;;;17.50;68.40;;;;;;6305882;22;20010;-76
2023/02/23 11:29:12;;;;;;;9.10;5.88;;;17.50;69.20;;;;;;6306646;22;20078;-77
2023/02/23 11:31:39;;;;;;;12.00;5.93;;;17.40;68.30;;;;;;6308067;22;20026;-76
2023/02/23 11:34:06;;;;;;;11.25;5.72;;;17.50;68.70;;;;;;6307977;22;20388;-77
2023/02/23 11:36:36;;;;;;;8.02;5.50;;;17.50;68.40;;;;;;6307966;22;20006;-78
2023/02/23 11:39:20;;;;;;;10.45;6.20;;;17.50;68.10;;;;;;6308033;22;20071;-77
2023/02/23 11:42:02;;;;;;;13.30;6.10;;;17.50;68.10;;;;;;6307788;22;19999;-78
2023/02/23 11:44:28;;;;;;;21.90;7.70;;;17.60;68.00;;;;;;6308434;22;20333;-77
2023/02/23 11:46:53;;;;;;;12.20;6.05;;;17.60;68.30;;;;;;6308331;22;19999;-78
2023/02/23 11:49:30;;;;;;;12.68;6.53;;;17.60;68.10;;;;;;6307528;22;20003;-76
2023/02/23 11:51:58;;;;;;;13.57;5.75;;;17.70;67.80;;;;;;6307546;22;20003;-74
2023/02/23 11:54:32;;;;;;;9.55;5.70;;;17.70;67.80;;;;;;6307863;22;20329;-72
2023/02/23 11:57:01;;;;;;;21.40;6.50;;;17.70;67.60;;;;;;6307302;22;20448;-76
2023/02/23 11:59:37;;;;;;;22.45;6.60;;;17.70;67.30;;;;;;6280585;22;20015;-78
2023/02/23 12:02:24;;;;;;;16.98;6.72;;;17.70;67.00;;;;;;6280602;22;20019;-76
2023/02/23 12:05:15;;;;;;;18.88;6.30;;;17.70;67.40;;;;;;6307618;22;20003;-76
2023/02/23 12:07:47;;;;;;;11.35;5.90;;;17.70;67.10;;;;;;6307520;22;20014;-79
2023/02/23 12:10:23;;;;;;;16.33;5.65;;;17.70;67.00;;;;;;6307755;22;20413;-78
2023/02/23 12:13:06;;;;;;;9.60;5.50;;;17.70;66.80;;;;;;6279683;22;20019;-75
2023/02/23 12:15:38;;;;;;;10.82;5.93;;;17.70;67.20;;;;;;6306118;22;20433;-75
2023/02/23 12:18:17;;;;;;;12.88;6.40;;;17.80;67.10;;;;;;6307414;22;20009;-75
2023/02/23 12:20:47;;;;;;;13.38;6.70;;;17.90;67.20;;;;;;6307754;22;20006;-76
2023/02/23 12:23:18;;;;;;;14.63;6.88;;;17.90;66.60;;;;;;6280364;22;20355;-77
2023/02/23 12:26:00;;;;;;;11.90;6.70;;;17.90;66.40;;;;;;6308060;22;20003;-75
2023/02/23 12:28:37;;;;;;;9.38;5.88;;;17.90;66.40;;;;;;6307929;22;20070;-76
2023/02/23 12:31:39;;;;;;;11.80;5.90;;;18.00;65.90;;;;;;6308343;22;20441;-75
2023/02/23 12:34:21;;;;;;;8.40;5.50;;;18.00;65.60;;;;;;6308425;22;20468;-76
2023/02/23 12:37:27;;;;;;;11.48;6.45;;;18.00;65.50;;;;;;6307991;22;19996;-76
2023/02/23 12:40:22;;;;;;;11.18;6.05;;;18.10;65.40;;;;;;6202889;22;20079;-75
2023/02/23 12:42:53;;;;;;;;;;;18.10;65.10;;;;;;6307706;22;20383;-75
2023/02/23 12:45:42;;;;;;;10.27;5.65;;;18.10;63.80;;;;;;6311520;22;19913;-78
2023/02/23 12:48:14;;;;;;;11.77;6.30;;;18.10;65.10;;;;;;6327220;22;19995;-77
2023/02/23 12:50:55;;;;;;;9.30;5.38;;;18.10;64.60;;;;;;6295794;22;20038;-75
2023/02/23 12:53:41;;;;;;;11.30;5.80;;;18.10;64.60;;;;;;6311771;22;20065;-77
2023/02/23 12:56:34;;;;;;;11.93;6.72;;;18.10;64.30;;;;;;6309951;22;20010;-75
2023/02/23 12:59:04;;;;;;;10.90;6.80;;;18.10;63.90;;;;;;6308335;22;20003;-75
2023/02/23 13:01:40;;;;;;;12.25;6.82;;;18.10;64.30;;;;;;6308404;22;20691;-75
2023/02/23 13:04:42;;;;;;;12.02;6.32;;;18.10;64.00;;;;;;6307694;22;20003;-76
2023/02/23 13:07:45;;;;;;;9.35;5.10;;;18.10;63.50;;;;;;6246102;22;20306;-75
2023/02/23 13:10:17;;;;;;;8.10;4.68;;;18.10;64.10;;;;;;6307918;22;19995;-76
2023/02/23 13:12:43;;;;;;;10.30;4.85;;;18.00;64.40;;;;;;6280442;22;20019;-76
2023/02/23 13:15:48;;;;;;;10.40;4.72;;;18.00;64.40;;;;;;6307743;22;20045;-76
2023/02/23 13:18:13;;;;;;;;;;;17.90;64.20;;;;;;6245284;22;20003;-77
2023/02/23 13:21:00;;;;;;;12.13;5.35;;;17.80;64.20;;;;;;6307843;22;19934;-76
2023/02/23 13:23:40;;;;;;;13.75;5.40;;;17.80;64.80;;;;;;6307578;22;20436;-76
2023/02/23 13:26:29;;;;;;;8.75;5.43;;;17.90;64.90;;;;;;6307791;22;20022;-75
2023/02/23 13:29:21;;;;;;;11.68;5.05;;;17.90;64.80;;;;;;6307515;22;20077;-76
2023/02/23 13:31:47;;;;;;;14.27;5.20;;;17.90;64.80;;;;;;6291023;22;20015;-76
2023/02/23 13:34:23;;;;;;;9.57;4.82;;;17.90;64.90;;;;;;6279902;22;20011;-76
2023/02/23 13:36:49;;;;;;;10.10;5.15;;;17.90;64.90;;;;;;6307182;22;20006;-76
2023/02/23 13:39:48;;;;;;;7.43;4.65;;;18.00;64.90;;;;;;6307261;22;20014;-75
2023/02/23 13:42:24;;;;;;;13.00;5.97;;;18.00;65.00;;;;;;6307602;22;19999;-76
2023/02/23 13:45:09;;;;;;;9.45;4.75;;;17.90;64.60;;;;;;6307132;22;20041;-74
2023/02/23 13:47:35;;;;;;;8.98;5.00;;;17.90;64.70;;;;;;6307354;22;20117;-76
2023/02/23 13:50:48;;;;;;;12.68;5.05;;;17.90;64.80;;;;;;6307162;22;20034;-76
2023/02/23 13:53:40;;;;;;;12.35;5.32;;;18.00;64.90;;;;;;6263331;22;20326;-75
2023/02/23 13:56:22;;;;;;;11.70;5.50;;;18.00;64.50;;;;;;6307095;22;19999;-76
2023/02/23 13:58:56;;;;;;;11.27;5.22;;;18.00;64.70;;;;;;6307297;22;20026;-76
2023/02/23 14:01:32;;;;;;;11.90;5.45;;;18.10;64.70;;;;;;6307200;22;20046;-73
2023/02/23 14:04:01;;;;;;;9.15;4.70;;;18.10;64.60;;;;;;6307015;22;20002;-76
2023/02/23 14:06:30;;;;;;;8.13;4.53;;;18.20;64.70;;;;;;6307095;22;20049;-76
2023/02/23 14:09:12;;;;;;;9.95;4.55;;;18.20;64.80;;;;;;6306842;22;19995;-77
2023/02/23 14:11:43;;;;;;;9.45;4.90;;;18.20;64.00;;;;;;6307368;22;19999;-76
2023/02/23 14:14:15;;;;;;;7.47;4.57;;;18.10;64.30;;;;;;6307322;22;20004;-75